createdAt,value
2019-01-04T00:01:35.658Z,99646.16
2019-01-04T00:05:20.382Z,99649.61
2019-01-04T00:08:10.081Z,99600.63
2019-01-04T00:10:58.531Z,99649.02
2019-01-04T00:14:05.479Z,99653.67
2019-01-04T00:16:48.903Z,99651.52
2019-01-04T00:19:39.042Z,99651.57
2019-01-04T00:22:28.610Z,99632.62
2019-01-04T00:28:09.423Z,99649.08
2019-01-04T00:31:00.063Z,99655.81
2019-01-04T00:33:49.995Z,99653.62
2019-01-04T00:36:39.573Z,99653.67
2019-01-04T00:39:29.314Z,99643.19
2019-01-04T00:50:04.081Z,99642.85
2019-01-04T00:52:53.662Z,99600.95
2019-01-04T01:00:10.073Z,99642.48
2019-01-04T01:03:52.592Z,99614.50
2019-01-04T01:07:15.525Z,99598.41
2019-01-04T01:17:20.731Z,99642.79
2019-01-04T01:20:21.696Z,99613.92
2019-01-04T01:27:46.627Z,99643.09
2019-01-04T01:31:30.372Z,99647.94
2019-01-04T01:35:04.560Z,99641.91
2019-01-04T01:38:31.080Z,99656.62
2019-01-04T01:41:59.127Z,99648.98
2019-01-04T01:45:36.038Z,99652.80
2019-01-04T01:52:19.156Z,99612.27
2019-01-04T01:55:09.017Z,99649.45
2019-01-04T02:09:18.707Z,99675.16
2019-01-04T02:15:44.597Z,99634.20
2019-01-04T02:21:38.694Z,99646.46
2019-01-04T02:32:21.976Z,99632.44
2019-01-04T02:35:47.084Z,99602.45
2019-01-04T02:38:36.663Z,99636.67
2019-01-04T02:45:26.413Z,99646.17
2019-01-04T02:48:13.763Z,99647.73
2019-01-04T02:51:03.351Z,99612.48
2019-01-04T02:57:39.584Z,99658.66
2019-01-04T03:00:29.181Z,99653.09
2019-01-04T03:03:55.594Z,99621.98
2019-01-04T03:09:53.222Z,99632.28
2019-01-04T03:12:36.345Z,99619.07
2019-01-04T03:15:26.025Z,99666.65
2019-01-04T03:22:32.123Z,99661.41
2019-01-04T03:25:20.976Z,99656.83
2019-01-04T03:31:24.793Z,99666.36
2019-01-04T03:38:36.647Z,99636.45
2019-01-04T03:41:26.422Z,99649.64
2019-01-04T03:48:52.875Z,99647.92
2019-01-04T04:03:42.796Z,99640.23
2019-01-04T04:06:32.672Z,99634.02
2019-01-04T04:10:15.290Z,99636.53
2019-01-04T04:26:17.060Z,99639.00
2019-01-04T04:28:58.934Z,99643.66
2019-01-04T04:31:50.004Z,99646.72
2019-01-04T04:38:39.824Z,99653.34
2019-01-04T04:41:29.498Z,99599.41
2019-01-04T04:44:19.083Z,99648.64
2019-01-04T04:47:08.639Z,99644.92
2019-01-04T04:50:33.453Z,99643.80
2019-01-04T04:53:40.981Z,99654.68
2019-01-04T04:56:31.561Z,99662.73
2019-01-04T04:59:21.147Z,99663.93
2019-01-04T05:05:17.813Z,99616.42
2019-01-04T05:11:42.220Z,99663.46
2019-01-04T05:14:31.884Z,99663.39
2019-01-04T05:17:21.507Z,99638.83
2019-01-04T05:20:11.097Z,99647.34
2019-01-04T05:23:00.674Z,99653.83
2019-01-04T05:25:50.269Z,99649.50
2019-01-04T05:28:37.614Z,99658.41
2019-01-04T05:35:29.003Z,99658.34
2019-01-04T05:38:18.571Z,99647.27
2019-01-04T05:41:26.138Z,99652.20
2019-01-04T05:44:15.733Z,99642.56
2019-01-04T05:47:40.609Z,99645.25
2019-01-04T05:50:30.299Z,99645.73
2019-01-04T05:57:24.589Z,99598.66
2019-01-04T06:07:47.895Z,99641.05
2019-01-04T06:10:36.534Z,99599.78
2019-01-04T06:13:43.275Z,99647.34
2019-01-04T06:16:25.445Z,99653.97
2019-01-04T06:20:08.173Z,99658.09
2019-01-04T06:22:57.735Z,99618.76
2019-01-04T06:26:05.225Z,99650.23
2019-01-04T06:32:01.906Z,99657.89
2019-01-04T06:38:41.101Z,99660.91
2019-01-04T06:41:30.762Z,99655.22
2019-01-04T06:44:20.390Z,99657.03
2019-01-04T06:47:29.508Z,99659.25
2019-01-04T06:51:14.030Z,99638.55
2019-01-04T07:19:26.109Z,99683.83
2019-01-04T08:16:09.521Z,99686.45
2019-01-04T08:28:55.057Z,99687.86
2019-01-04T08:45:53.104Z,99689.30
2019-01-04T09:01:14.102Z,99705.84
2019-01-04T09:10:52.342Z,99705.56
2019-01-04T09:13:43.313Z,99709.84
2019-01-04T09:17:08.067Z,99698.14
2019-01-04T09:20:44.288Z,99680.70
2019-01-04T09:25:52.532Z,99691.83
2019-01-04T09:34:45.311Z,99693.45
2019-01-04T09:44:11.467Z,99690.89
2019-01-04T10:01:24.174Z,99663.69
2019-01-04T10:04:49.347Z,99664.11
2019-01-04T10:07:56.883Z,99669.30
2019-01-04T10:10:46.467Z,99663.81
2019-01-04T10:13:53.593Z,99623.27
2019-01-04T10:17:18.433Z,99666.00
2019-01-04T10:20:29.186Z,99660.73
2019-01-04T10:23:54.325Z,99633.84
2019-01-04T10:27:19.528Z,99654.36
2019-01-04T10:34:13.671Z,99648.84
2019-01-04T10:37:03.427Z,99643.78
2019-01-04T10:39:53.023Z,99648.30
2019-01-04T10:42:42.869Z,99643.64
2019-01-04T10:49:20.987Z,99644.50
2019-01-04T10:52:11.165Z,99629.94
2019-01-04T10:58:48.098Z,99619.05
2019-01-04T11:05:59.870Z,99546.10
2019-01-04T11:12:17.606Z,99584.02
2019-01-04T11:26:27.002Z,99513.76
2019-01-04T11:29:52.098Z,99562.33
2019-01-04T11:35:52.818Z,99545.52
2019-01-04T11:39:38.131Z,99542.69
2019-01-04T11:42:55.382Z,99542.48
2019-01-04T11:46:16.536Z,99539.57
2019-01-04T11:53:32.331Z,99501.08
2019-01-04T11:56:21.923Z,99522.16
2019-01-04T12:02:59.496Z,99508.25
2019-01-04T12:05:49.081Z,99460.77
2019-01-04T12:08:38.666Z,99499.11
2019-01-04T12:11:21.367Z,99493.08
2019-01-04T12:14:11.224Z,99502.01
2019-01-04T12:17:00.808Z,99500.34
2019-01-04T12:20:45.480Z,99467.69
2019-01-04T12:27:42.925Z,99488.34
2019-01-04T12:34:56.319Z,99481.88
2019-01-04T12:37:46.150Z,99477.52
2019-01-04T12:40:35.768Z,99435.52
2019-01-04T12:46:51.595Z,99461.08
2019-01-04T12:49:41.448Z,99473.16
2019-01-04T12:52:31.024Z,99475.77
2019-01-04T12:56:07.364Z,99482.72
2019-01-04T13:01:57.512Z,99489.86
2019-01-04T13:12:36.526Z,99466.87
2019-01-04T13:15:26.111Z,99447.63
2019-01-04T13:18:15.700Z,99448.84
2019-01-04T13:22:00.730Z,99444.63
2019-01-04T13:24:50.274Z,99461.86
2019-01-04T13:27:40.123Z,99402.23
2019-01-04T13:30:29.711Z,99433.88
2019-01-04T13:33:19.660Z,99433.38
2019-01-04T13:36:27.253Z,99429.39
2019-01-04T13:39:16.839Z,99448.00
2019-01-04T13:42:24.060Z,99378.42
2019-01-04T13:45:13.651Z,99374.46
2019-01-04T13:55:43.856Z,99412.48
2019-01-04T13:58:33.772Z,99394.91
2019-01-04T14:04:33.625Z,99410.67
2019-01-04T14:08:18.676Z,99421.34
2019-01-04T14:11:08.242Z,99401.50
2019-01-04T14:13:51.959Z,99391.57
2019-01-04T14:16:41.811Z,99378.25
2019-01-04T14:19:31.441Z,99389.81
2019-01-04T14:22:21.110Z,99390.44
2019-01-04T14:25:10.679Z,99389.98
2019-01-04T14:28:00.251Z,99375.56
2019-01-04T14:30:49.853Z,99379.89
2019-01-04T14:33:39.713Z,99383.73
2019-01-04T14:36:29.610Z,99353.36
2019-01-04T14:39:41.145Z,99393.16
2019-01-04T14:45:23.699Z,99347.69
2019-01-04T14:48:13.287Z,99366.61
2019-01-04T14:51:02.871Z,99374.16
2019-01-04T14:53:52.723Z,99378.17
2019-01-04T15:00:28.705Z,99407.05
2019-01-04T15:03:36.159Z,99347.53
2019-01-04T15:06:25.807Z,99382.09
2019-01-04T15:09:15.397Z,99328.14
2019-01-04T15:12:14.829Z,99385.38
2019-01-04T15:14:57.705Z,99377.83
2019-01-04T15:17:48.397Z,99375.99
2019-01-04T15:20:38.379Z,99377.92
2019-01-04T15:23:28.261Z,99358.94
2019-01-04T15:27:10.927Z,99324.09
2019-01-04T15:30:00.498Z,99338.02
2019-01-04T15:32:50.147Z,99337.78
2019-01-04T15:54:44.355Z,99379.56
2019-01-04T15:57:34.244Z,99383.25
2019-01-04T16:00:23.827Z,99381.44
2019-01-04T16:06:59.439Z,99387.06
2019-01-04T16:10:43.380Z,99382.73
2019-01-04T16:13:50.728Z,99379.80
2019-01-04T16:16:36.649Z,99378.09
2019-01-04T16:19:44.041Z,99372.77
2019-01-04T16:26:20.299Z,99338.04
2019-01-04T16:29:10.733Z,99328.16
2019-01-04T16:31:53.996Z,99332.09
2019-01-04T16:34:43.866Z,99326.22
2019-01-04T16:37:33.450Z,99315.87
2019-01-04T16:44:27.973Z,99308.22
2019-01-04T16:47:17.841Z,99304.54
2019-01-04T16:50:06.425Z,99304.31
2019-01-04T16:53:31.431Z,99293.48
2019-01-04T16:56:21.008Z,99285.27
2019-01-04T16:59:46.239Z,99261.83
2019-01-04T17:02:35.818Z,99253.30
2019-01-04T17:05:42.138Z,99250.51
2019-01-04T17:08:49.654Z,99211.22
2019-01-04T17:11:57.117Z,99226.91
2019-01-04T17:14:46.665Z,99224.97
2019-01-04T17:18:12.507Z,99221.29
2019-01-04T17:21:37.290Z,99224.50
2019-01-04T17:27:34.741Z,99209.23
2019-01-04T17:31:01.030Z,99211.33
2019-01-04T17:34:08.535Z,99184.14
2019-01-04T17:36:58.119Z,99172.91
2019-01-04T17:40:40.617Z,99186.30
2019-01-04T17:43:30.442Z,99163.48
2019-01-04T17:46:20.037Z,99159.80
2019-01-04T17:49:09.600Z,99172.98
2019-01-04T17:51:59.304Z,99164.49
2019-01-04T17:54:48.901Z,99170.75
2019-01-04T17:58:15.276Z,99148.42
2019-01-04T18:04:52.315Z,99172.86
2019-01-04T18:07:42.243Z,99175.97
2019-01-04T18:10:31.824Z,99172.56
2019-01-04T18:13:14.167Z,99173.62
2019-01-04T18:16:03.752Z,99187.34
2019-01-04T18:19:47.339Z,99142.27
2019-01-04T18:23:12.196Z,99152.48
2019-01-04T18:30:00.663Z,99140.64
2019-01-04T18:33:07.850Z,99147.66
2019-01-04T18:40:35.379Z,99174.02
2019-01-04T18:43:25.265Z,99154.05
2019-01-04T18:46:14.809Z,99167.17
2019-01-04T18:49:22.138Z,99170.28
2019-01-04T18:52:11.700Z,99131.10
2019-01-04T18:55:54.206Z,99181.21
2019-01-04T19:01:39.447Z,99165.43
2019-01-04T19:04:47.969Z,99152.34
2019-01-04T19:07:37.503Z,99151.80
2019-01-04T19:11:26.405Z,99145.41
2019-01-04T19:14:09.400Z,99152.66
2019-01-04T19:16:57.452Z,99139.37
2019-01-04T19:19:47.295Z,99162.55
2019-01-04T19:22:37.341Z,99168.03
2019-01-04T19:25:27.216Z,99119.64
2019-01-04T19:28:16.781Z,99150.95
2019-01-04T19:31:06.383Z,99171.94
2019-01-04T19:33:56.242Z,99159.84
2019-01-04T19:36:45.824Z,99161.48
2019-01-04T19:39:35.449Z,99163.98
2019-01-04T19:42:25.030Z,99163.65
2019-01-04T19:45:14.590Z,99152.80
2019-01-04T19:48:20.725Z,99160.70
2019-01-04T19:51:10.300Z,99122.84
2019-01-04T19:54:00.209Z,99155.30
2019-01-04T19:56:49.950Z,99173.42
2019-01-04T20:03:59.201Z,99170.05
2019-01-04T20:07:45.341Z,99161.79
2019-01-04T20:15:13.599Z,99131.52
2019-01-04T20:18:24.610Z,99118.95
2019-01-04T20:25:33.912Z,99158.50
2019-01-04T20:31:36.602Z,99165.75
2019-01-04T20:38:34.330Z,99152.80
2019-01-04T20:48:56.206Z,99176.69
2019-01-04T20:52:04.681Z,99166.09
2019-01-04T21:11:02.562Z,99160.60
2019-01-04T21:32:20.379Z,99165.84
2019-01-04T21:38:08.385Z,99165.69
2019-01-04T22:31:42.420Z,99122.53
2019-01-04T22:46:33.705Z,99101.83
2019-01-04T22:56:02.805Z,99104.93
2019-01-04T23:07:52.484Z,99103.77
2019-01-04T23:13:43.870Z,99092.33
2019-01-04T23:16:51.552Z,99088.44
2019-01-04T23:23:10.477Z,99099.68
2019-01-04T23:26:01.135Z,99082.03
2019-01-04T23:32:40.044Z,99081.72
2019-01-04T23:39:24.777Z,99074.22
2019-01-04T23:45:45.525Z,99068.59
2019-01-04T23:49:30.593Z,99077.48
2019-01-04T23:52:41.148Z,99071.42
2019-01-04T23:55:47.694Z,99080.92
2019-01-04T23:59:13.949Z,99062.98
